This is the latest recevied weather packets stored in our database for station/object IVARAZ6. If no packets are shown the sender has not sent any weather packets the latest 10 day(s).
| Time | Temp. | Humidity | Pressure | Rain* | Wind** | Luminosity | Snow |
|---|---|---|---|---|---|---|---|
| 1778180779 | 16.11° C | 86% | 1011.2 hPa | 0 mm | - | 0 W/m² | - |
| 1778180479 | 16.11° C | 86% | 1011.1 hPa | 0 mm | - | 0 W/m² | - |
| 1778178379 | 17.22° C | 83% | 1011.1 hPa | 0 mm | - | 9 W/m² | - |
| 1778178078 | 17.22° C | 83% | 1011.2 hPa | 0 mm | - | 14 W/m² | - |
| 1778177179 | 17.22° C | 82% | 1011 hPa | 0 mm | - | 21 W/m² | - |
| 1778175079 | 17.78° C | 81% | 1011.1 hPa | 0 mm | - | 39 W/m² | - |
| 1778174479 | 17.78° C | 81% | 1011 hPa | 0 mm | - | 65 W/m² | - |
| 1778173579 | 18.33° C | 81% | 1011.2 hPa | 0 mm | - | 102 W/m² | - |
| 1778172379 | 18.33° C | 79% | 1010.9 hPa | 0 mm | - | 88 W/m² | - |
| 1778170585 | 19.44° C | 76% | 1010.9 hPa | 0 mm | - | 322 W/m² | - |
| 1778170278 | 19.44° C | 78% | 1010.9 hPa | 0 mm | - | 408 W/m² | - |
| 1778169381 | 19.44° C | 78% | 1010.7 hPa | 0 mm | - | 390 W/m² | - |
| 1778169081 | 19.44° C | 77% | 1010.7 hPa | 0 mm | - | 100 W/m² | - |
| 1778168778 | 19.44° C | 76% | 1010.6 hPa | 0 mm | - | 169 W/m² | - |
| 1778168478 | 20° C | 75% | 1010.7 hPa | 0 mm | - | 510 W/m² | - |
| 1778168181 | 20° C | 76% | 1010.8 hPa | 0 mm | - | 381 W/m² | - |
| 1778167578 | 19.44° C | 76% | 1010.7 hPa | 0 mm | - | 557 W/m² | - |
| 1778166681 | 19.44° C | 76% | 1010.8 hPa | 0 mm | - | 622 W/m² | - |
| 1778166378 | 18.89° C | 76% | 1010.9 hPa | 0 mm | - | 580 W/m² | - |
| 1778164579 | 18.89° C | 76% | 1010.7 hPa | 0 mm | - | 705 W/m² | - |
| 1778163379 | 19.44° C | 74% | 1011 hPa | 0 mm | - | 677 W/m² | - |
| 1778162184 | 20° C | 75% | 1011 hPa | 0 mm | - | 703 W/m² | - |
| 1778161581 | 19.44° C | 76% | 1011.1 hPa | 0 mm | - | 722 W/m² | - |
| 1778161284 | 19.44° C | 76% | 1011.1 hPa | 0 mm | - | 749 W/m² | - |
| 1778160678 | 19.44° C | 75% | 1011.2 hPa | 0 mm | - | 791 W/m² | - |
* Rain latest hour (hover to see other rain measurements)
** Current wind speed in m/s (hover to see current wind gust speed)